createdAt,value
2022-10-25T00:03:36.466Z,100568.72
2022-10-25T00:08:39.715Z,100570.25
2022-10-25T00:13:42.533Z,100573.84
2022-10-25T00:18:46.847Z,100576.44
2022-10-25T00:23:50.099Z,100580.69
2022-10-25T00:29:17.008Z,100570.94
2022-10-25T00:34:21.257Z,100574.28
2022-10-25T00:39:24.132Z,100571.69
2022-10-25T00:44:50.762Z,100576.69
2022-10-25T00:50:01.989Z,100571.38
2022-10-25T00:55:07.469Z,100576.56
2022-10-25T01:00:12.274Z,100578.84
2022-10-25T01:05:17.463Z,100579.53
2022-10-25T01:10:20.342Z,100573.91
2022-10-25T01:15:28.764Z,100571.16
2022-10-25T01:21:06.278Z,100580.97
2022-10-25T01:26:35.120Z,100573.09
2022-10-25T01:31:45.928Z,100579.81
2022-10-25T01:36:57.169Z,100585.63
2022-10-25T01:42:06.473Z,100580.53
2022-10-25T01:47:18.456Z,100578.56
2022-10-25T01:52:22.812Z,100586.19
2022-10-25T01:57:40.066Z,100580.69
2022-10-25T02:03:11.761Z,100585.72
2022-10-25T02:08:25.835Z,100583.56
2022-10-25T02:13:31.821Z,100579.91
2022-10-25T02:18:40.743Z,100580.97
2022-10-25T02:23:44.448Z,100590.91
2022-10-25T02:28:47.713Z,100599.03
2022-10-25T02:33:51.955Z,100595.19
2022-10-25T02:38:57.350Z,100597.44
2022-10-25T02:44:00.206Z,100600.28
2022-10-25T02:49:04.433Z,100608.69
2022-10-25T02:54:07.301Z,100616.22
2022-10-25T02:59:13.065Z,100609.56
2022-10-25T03:04:17.267Z,100614.56
2022-10-25T03:09:20.082Z,100618.88
2022-10-25T03:14:22.954Z,100615.28
2022-10-25T03:19:27.193Z,100618.75
2022-10-25T03:24:29.977Z,100626.72
2022-10-25T03:29:32.722Z,100638.22
2022-10-25T03:34:37.085Z,100641.69
2022-10-25T03:39:39.909Z,100645.44
2022-10-25T03:44:42.637Z,100652.72
2022-10-25T03:49:46.993Z,100648.13
2022-10-25T03:54:49.840Z,100649.38
2022-10-25T03:59:52.873Z,100661.84
2022-10-25T04:04:56.996Z,100661.28
2022-10-25T04:09:59.742Z,100651.06
2022-10-25T04:15:02.548Z,100651.97
2022-10-25T04:20:08.170Z,100663.97
2022-10-25T04:25:11.018Z,100666.47
2022-10-25T04:30:14.277Z,100663.00
2022-10-25T04:35:18.744Z,100666.06
2022-10-25T04:40:24.079Z,100667.69
2022-10-25T04:45:27.694Z,100665.22
2022-10-25T04:50:31.872Z,100665.81
2022-10-25T04:55:34.658Z,100674.22
2022-10-25T05:00:37.419Z,100672.72
2022-10-25T05:05:41.618Z,100670.28
2022-10-25T05:10:44.358Z,100674.56
2022-10-25T05:15:55.909Z,100674.22
2022-10-25T05:21:04.378Z,100670.28
2022-10-25T05:26:09.002Z,100677.63
2022-10-25T05:31:15.175Z,100681.94
2022-10-25T05:36:20.336Z,100678.19
2022-10-25T05:41:23.133Z,100687.13
2022-10-25T05:46:25.919Z,100695.34
2022-10-25T05:51:36.636Z,100708.06
2022-10-25T05:56:40.529Z,100704.94
2022-10-25T06:01:45.464Z,100708.03
2022-10-25T06:06:52.090Z,100717.91
2022-10-25T06:11:54.884Z,100718.50
2022-10-25T06:16:57.868Z,100721.22
2022-10-25T06:22:02.271Z,100726.25
2022-10-25T06:27:05.261Z,100728.09
2022-10-25T06:32:07.967Z,100737.19
2022-10-25T06:37:12.095Z,100738.63
2022-10-25T06:42:14.873Z,100745.59
2022-10-25T06:47:18.211Z,100755.53
2022-10-25T06:52:22.527Z,100751.59
2022-10-25T06:57:25.399Z,100763.25
2022-10-25T07:02:28.347Z,100768.19
2022-10-25T07:07:32.711Z,100774.53
2022-10-25T07:12:38.063Z,100777.19
2022-10-25T07:17:40.963Z,100784.00
2022-10-25T07:22:46.426Z,100789.31
2022-10-25T07:27:49.585Z,100786.78
2022-10-25T07:32:52.632Z,100789.22
2022-10-25T07:37:56.744Z,100791.50
2022-10-25T07:42:59.724Z,100802.16
2022-10-25T07:48:02.614Z,100807.16
2022-10-25T07:53:06.735Z,100815.75
2022-10-25T07:58:12.311Z,100820.41
2022-10-25T08:03:15.928Z,100832.94
2022-10-25T08:08:23.242Z,100831.56
2022-10-25T08:13:26.464Z,100837.50
2022-10-25T08:18:29.589Z,100840.53
2022-10-25T08:23:34.113Z,100837.00
2022-10-25T08:28:37.006Z,100849.44
2022-10-25T08:33:39.930Z,100851.25
2022-10-25T08:38:44.159Z,100859.69
2022-10-25T08:44:13.807Z,100861.25
2022-10-25T08:49:20.892Z,100880.59
2022-10-25T08:54:29.000Z,100884.28
2022-10-25T08:59:36.998Z,100885.50
2022-10-25T09:04:39.851Z,100895.78
2022-10-25T09:09:53.284Z,100902.66
2022-10-25T09:15:03.250Z,100906.50
2022-10-25T09:20:08.514Z,100907.84
2022-10-25T09:25:21.141Z,100903.19
2022-10-25T09:30:24.049Z,100906.06
2022-10-25T09:35:29.817Z,100910.09
2022-10-25T09:40:47.594Z,100908.59
2022-10-25T09:45:55.653Z,100928.75
2022-10-25T09:51:03.957Z,100920.81
2022-10-25T09:56:09.613Z,100926.50
2022-10-25T10:01:17.766Z,100928.47
2022-10-25T10:06:22.639Z,100931.13
2022-10-25T10:11:26.847Z,100940.44
2022-10-25T10:16:35.529Z,100927.94
2022-10-25T10:21:42.654Z,100942.50
2022-10-25T10:26:51.568Z,100945.00
2022-10-25T10:31:56.253Z,100961.56
2022-10-25T10:37:07.897Z,100950.28
2022-10-25T10:42:18.447Z,100951.03
2022-10-25T10:47:22.864Z,100952.22
2022-10-25T10:52:31.203Z,100949.50
2022-10-25T10:57:36.386Z,100953.00
2022-10-25T11:02:41.681Z,100957.00
2022-10-25T11:07:45.088Z,100953.56
2022-10-25T11:13:06.181Z,100968.31
2022-10-25T11:18:10.478Z,100981.97
2022-10-25T11:23:22.069Z,100987.06
2022-10-25T11:28:41.847Z,100996.28
2022-10-25T11:34:00.160Z,100984.56
2022-10-25T11:39:17.474Z,100987.31
2022-10-25T11:44:49.325Z,100995.47
2022-10-25T11:50:13.326Z,100994.59
2022-10-25T11:55:27.078Z,100989.22
2022-10-25T12:00:44.323Z,101005.19
2022-10-25T12:05:54.063Z,101006.16
2022-10-25T12:11:03.249Z,101000.34
2022-10-25T12:16:12.733Z,101005.38
2022-10-25T12:21:21.958Z,101015.53
2022-10-25T12:26:30.374Z,101017.19
2022-10-25T12:31:39.931Z,101019.63
2022-10-25T12:36:45.407Z,101028.75
2022-10-25T12:41:52.008Z,101039.09
2022-10-25T12:47:20.146Z,101036.78
2022-10-25T12:52:30.780Z,101043.63
2022-10-25T12:57:47.498Z,101052.56
2022-10-25T13:03:34.173Z,101049.06
2022-10-25T13:08:41.130Z,101054.69
2022-10-25T13:13:50.783Z,101044.38
2022-10-25T13:19:49.836Z,101044.19
2022-10-25T13:24:52.796Z,101048.50
2022-10-25T13:30:19.504Z,101059.88
2022-10-25T13:36:00.275Z,101063.44
2022-10-25T13:41:09.543Z,101064.94
2022-10-25T13:46:12.659Z,101063.41
2022-10-25T13:51:18.156Z,101073.75
2022-10-25T13:56:35.756Z,101082.41
2022-10-25T14:01:54.596Z,101084.00
2022-10-25T14:07:37.050Z,101081.00
2022-10-25T14:12:43.885Z,101078.00
2022-10-25T14:17:49.689Z,101084.69
2022-10-25T14:22:57.831Z,101075.81
2022-10-25T14:28:07.730Z,101082.91
2022-10-25T14:33:23.905Z,101079.09
2022-10-25T14:38:29.039Z,101084.63
2022-10-25T14:43:34.068Z,101085.50
2022-10-25T14:48:37.468Z,101070.09
2022-10-25T14:53:52.335Z,101079.06
2022-10-25T14:58:56.108Z,101085.09
2022-10-25T15:04:02.310Z,101086.22
2022-10-25T15:14:31.777Z,101098.91
2022-10-25T15:19:58.920Z,101093.72
2022-10-25T15:25:03.156Z,101104.22
2022-10-25T15:30:06.828Z,101102.31
2022-10-25T15:35:23.907Z,101098.81
2022-10-25T15:40:28.050Z,101098.72
2022-10-25T15:45:32.155Z,101105.97
2022-10-25T15:50:35.314Z,101107.72
2022-10-25T15:55:41.560Z,101112.03
2022-10-25T16:00:45.090Z,101104.25
2022-10-25T16:05:50.229Z,101104.06
2022-10-25T16:10:55.323Z,101102.53
2022-10-25T16:15:58.111Z,101105.66
2022-10-25T16:21:00.910Z,101109.38
2022-10-25T16:26:05.361Z,101116.78
2022-10-25T16:31:08.204Z,101126.22
2022-10-25T16:36:14.069Z,101130.34
2022-10-25T16:41:26.364Z,101132.25
2022-10-25T16:46:29.412Z,101131.09
2022-10-25T16:51:34.724Z,101130.88
2022-10-25T16:56:42.267Z,101143.19
2022-10-25T17:01:46.974Z,101142.09
2022-10-25T17:06:50.004Z,101154.84
2022-10-25T17:11:54.286Z,101146.56
2022-10-25T17:17:02.216Z,101144.22
2022-10-25T17:22:06.655Z,101144.66
2022-10-25T17:27:13.918Z,101153.69
2022-10-25T17:32:17.399Z,101166.28
2022-10-25T17:37:51.601Z,101166.28
2022-10-25T17:42:59.115Z,101172.53
2022-10-25T17:48:03.670Z,101173.72
2022-10-25T17:59:54.058Z,101184.63
2022-10-25T18:05:58.068Z,101171.94
2022-10-25T18:11:50.578Z,101177.94
2022-10-25T18:16:55.073Z,101169.53
2022-10-25T18:22:13.960Z,101174.72
2022-10-25T18:27:17.526Z,101180.50
2022-10-25T18:32:35.282Z,101188.69
2022-10-25T18:37:50.119Z,101185.41
2022-10-25T18:43:00.793Z,101183.47
2022-10-25T18:48:41.093Z,101183.97
2022-10-25T18:53:39.088Z,101185.53
2022-10-25T18:58:45.854Z,101184.91
2022-10-25T19:03:50.293Z,101183.69
2022-10-25T19:08:57.496Z,101179.16
2022-10-25T19:14:04.212Z,101187.25
2022-10-25T19:19:09.420Z,101191.13
2022-10-25T19:24:16.638Z,101182.00
2022-10-25T21:52:36.876Z,101257.75
2022-10-25T21:57:39.729Z,101261.53
2022-10-25T22:08:42.798Z,101262.66
2022-10-25T22:13:47.849Z,101258.16
2022-10-25T22:18:54.340Z,101258.97
2022-10-25T22:23:57.605Z,101260.53
2022-10-25T22:29:02.606Z,101265.94
2022-10-25T22:34:07.374Z,101266.81
2022-10-25T22:39:10.725Z,101264.69
2022-10-25T22:44:15.670Z,101264.22
2022-10-25T22:49:19.323Z,101259.50
2022-10-25T22:54:22.172Z,101259.94
2022-10-25T22:59:26.496Z,101254.75
2022-10-25T23:04:31.505Z,101260.84
2022-10-25T23:09:37.324Z,101257.00
2022-10-25T23:15:06.607Z,101262.50
2022-10-25T23:20:11.879Z,101257.66
2022-10-25T23:25:20.593Z,101253.38
2022-10-25T23:30:49.849Z,101256.75
2022-10-25T23:35:56.315Z,101252.91
2022-10-25T23:40:59.328Z,101256.16
2022-10-25T23:46:04.431Z,101242.63
2022-10-25T23:51:22.738Z,101246.53
2022-10-25T23:56:32.155Z,101250.22
